Time;durP1;ratioP1;P1;durP2;ratioP2;P2;SDS_P1;SDS_P2;PMS_P1;PMS_P2;Temp;Humidity;BMP_temperature;BMP_pressure;BME280_temperature;BME280_humidity;BME280_pressure;Samples;Min_cycle;Max_cycle;Signal;HPM_P1;HPM_P2
2022/10/29 00:02:19;;;;;;;9.90;6.03;;;14.10;99.90;;;;;;5032511;28;20060;-60
2022/10/29 00:04:44;;;;;;;12.70;6.35;;;14.00;99.90;;;;;;5032283;28;20438;-59
2022/10/29 00:07:10;;;;;;;11.98;5.28;;;14.00;99.90;;;;;;5032003;28;20079;-58
2022/10/29 00:09:35;;;;;;;8.85;5.10;;;14.00;99.90;;;;;;5032491;28;20039;-59
2022/10/29 00:12:01;;;;;;;11.55;5.00;;;14.00;99.90;;;;;;5031780;28;20034;-59
2022/10/29 00:14:26;;;;;;;10.88;5.18;;;13.90;99.90;;;;;;5032401;28;20061;-59
2022/10/29 00:16:52;;;;;;;12.20;5.38;;;13.90;99.90;;;;;;5032283;28;20022;-59
2022/10/29 00:19:17;;;;;;;10.90;5.30;;;13.90;99.90;;;;;;5031778;28;20304;-58
2022/10/29 00:21:43;;;;;;;11.15;5.97;;;13.90;99.90;;;;;;5032321;28;20140;-60
2022/10/29 00:24:09;;;;;;;12.48;5.68;;;13.90;99.90;;;;;;5031232;28;20028;-59
2022/10/29 00:26:35;;;;;;;13.13;4.93;;;13.90;99.90;;;;;;5031319;28;20028;-58
2022/10/29 00:29:01;;;;;;;11.95;4.55;;;13.90;99.90;;;;;;5031898;28;20021;-59
2022/10/29 00:31:26;;;;;;;10.45;5.00;;;14.00;99.90;;;;;;5030782;28;20042;-62
2022/10/29 00:33:54;;;;;;;9.20;5.00;;;14.00;99.90;;;;;;5031405;28;20021;-59
2022/10/29 00:36:25;;;;;;;12.95;5.32;;;14.00;99.90;;;;;;5032091;28;20136;-66
2022/10/29 00:38:50;;;;;;;9.45;5.45;;;13.90;99.90;;;;;;5032123;28;20049;-63
2022/10/29 00:41:19;;;;;;;9.27;5.35;;;13.90;99.90;;;;;;5031669;28;20064;-64
2022/10/29 00:43:50;;;;;;;12.10;5.43;;;13.90;99.90;;;;;;5031006;28;20026;-65
2022/10/29 00:46:20;;;;;;;9.50;5.03;;;13.80;99.90;;;;;;5032277;28;20104;-63
2022/10/29 00:48:50;;;;;;;9.18;4.75;;;13.80;99.90;;;;;;5031775;28;20109;-62
2022/10/29 00:51:16;;;;;;;6.93;4.15;;;13.60;99.90;;;;;;5032208;28;20041;-68
2022/10/29 00:54:04;;;;;;;7.88;3.85;;;13.60;99.90;;;;;;5032249;28;20022;-66
2022/10/29 00:56:34;;;;;;;7.40;3.95;;;13.50;99.90;;;;;;5036038;28;20036;-62
2022/10/29 00:59:00;;;;;;;5.23;3.50;;;13.40;99.90;;;;;;5035905;28;20036;-62
2022/10/29 01:01:26;;;;;;;7.80;3.60;;;13.30;99.90;;;;;;5035190;28;20030;-67
2022/10/29 01:03:53;;;;;;;8.05;3.75;;;13.30;99.90;;;;;;5035555;28;20088;-64
2022/10/29 01:06:19;;;;;;;7.93;4.22;;;13.30;99.90;;;;;;5035901;28;20068;-65
2022/10/29 01:08:44;;;;;;;7.55;4.38;;;13.20;99.90;;;;;;5035158;28;20478;-65
2022/10/29 01:11:58;;;;;;;8.77;4.30;;;13.20;99.90;;;;;;5034366;28;20086;-62
2022/10/29 01:14:26;;;;;;;9.82;4.38;;;13.20;99.90;;;;;;4978059;28;20133;-68
2022/10/29 01:17:08;;;;;;;8.65;4.28;;;13.10;99.90;;;;;;5034637;28;20024;-61
2022/10/29 01:19:33;;;;;;;;;;;13.10;99.90;;;;;;5035666;28;20075;-64
2022/10/29 01:22:14;;;;;;;11.23;4.80;;;13.10;99.90;;;;;;5035390;28;19913;-67
2022/10/29 01:24:45;;;;;;;8.32;4.65;;;13.10;99.90;;;;;;5035352;28;20056;-63
2022/10/29 01:27:34;;;;;;;10.00;5.07;;;13.00;99.90;;;;;;5035158;28;20021;-65
2022/10/29 01:30:11;;;;;;;17.90;7.90;;;13.00;99.90;;;;;;5033740;28;20052;-62
2022/10/29 01:32:48;;;;;;;14.73;8.13;;;13.00;99.90;;;;;;5035204;28;20032;-63
2022/10/29 01:35:37;;;;;;;21.13;9.77;;;13.00;99.90;;;;;;5033039;28;20029;-59
2022/10/29 01:38:18;;;;;;;18.63;10.15;;;13.00;99.90;;;;;;5032606;28;20029;-64
2022/10/29 01:40:56;;;;;;;19.38;10.10;;;13.00;99.90;;;;;;5031955;28;20044;-60
2022/10/29 01:43:37;;;;;;;17.73;9.70;;;13.00;99.90;;;;;;5033649;28;20032;-60
2022/10/29 01:46:11;;;;;;;20.38;8.52;;;13.00;99.90;;;;;;5034907;28;20048;-59
2022/10/29 01:48:43;;;;;;;14.40;7.97;;;13.00;99.90;;;;;;5033807;28;20025;-61
2022/10/29 01:51:17;;;;;;;14.30;7.30;;;13.00;99.90;;;;;;5034371;28;20036;-60
2022/10/29 01:53:44;;;;;;;14.45;6.80;;;12.90;99.90;;;;;;5034728;28;20462;-59
2022/10/29 01:56:09;;;;;;;14.88;6.80;;;12.80;99.90;;;;;;5034759;28;20401;-58
2022/10/29 01:58:36;;;;;;;10.77;5.63;;;12.80;99.90;;;;;;5033954;28;20022;-59
2022/10/29 02:01:20;;;;;;;10.23;5.60;;;12.80;99.90;;;;;;5034646;28;20482;-59
2022/10/29 02:03:46;;;;;;;9.65;5.38;;;12.70;99.90;;;;;;5034574;28;20075;-58
2022/10/29 02:06:23;;;;;;;8.10;4.55;;;12.70;99.90;;;;;;5033521;28;20029;-59
2022/10/29 02:08:59;;;;;;;7.85;4.07;;;12.60;99.90;;;;;;5034282;28;20059;-58
2022/10/29 02:11:29;;;;;;;7.45;4.07;;;12.60;99.90;;;;;;5034038;28;20107;-60
2022/10/29 02:13:57;;;;;;;11.02;3.90;;;12.50;99.90;;;;;;5034353;28;20366;-57
2022/10/29 02:16:24;;;;;;;5.50;3.33;;;12.50;99.90;;;;;;5034373;28;20415;-60
2022/10/29 02:18:51;;;;;;;7.15;3.65;;;12.50;99.90;;;;;;5032347;28;20052;-56
2022/10/29 02:21:18;;;;;;;6.28;3.42;;;12.40;99.90;;;;;;5034287;28;20367;-59
2022/10/29 02:23:44;;;;;;;5.70;3.20;;;12.40;99.90;;;;;;5034287;28;20096;-59
2022/10/29 02:26:10;;;;;;;5.93;3.50;;;12.40;99.90;;;;;;5033552;28;20076;-59
2022/10/29 02:28:35;;;;;;;7.97;3.80;;;12.40;99.90;;;;;;5034451;28;20013;-59
2022/10/29 02:31:01;;;;;;;5.93;3.28;;;12.50;99.90;;;;;;5034146;28;20033;-59
2022/10/29 02:33:27;;;;;;;10.07;3.58;;;12.50;99.90;;;;;;5033589;28;20017;-57
2022/10/29 02:35:52;;;;;;;7.95;3.78;;;12.60;99.90;;;;;;5033914;28;20036;-59
2022/10/29 02:38:18;;;;;;;5.93;3.30;;;12.60;99.90;;;;;;5033859;28;20100;-59
2022/10/29 02:40:43;;;;;;;6.00;3.47;;;12.60;99.90;;;;;;5033402;28;20033;-59
2022/10/29 02:43:09;;;;;;;6.30;3.38;;;12.60;99.90;;;;;;5033898;28;20032;-59
2022/10/29 02:45:35;;;;;;;5.78;3.55;;;12.60;99.90;;;;;;5033704;28;20056;-63
2022/10/29 02:48:00;;;;;;;9.95;4.07;;;12.60;99.90;;;;;;5033359;28;20105;-59
2022/10/29 02:50:26;;;;;;;8.00;3.55;;;12.60;99.90;;;;;;5033214;28;20119;-62
2022/10/29 02:52:51;;;;;;;9.13;3.67;;;12.60;99.90;;;;;;5033919;28;20021;-63
2022/10/29 02:55:17;;;;;;;7.13;3.72;;;12.60;99.90;;;;;;5033213;28;20099;-65
2022/10/29 02:57:43;;;;;;;6.40;3.92;;;12.60;99.90;;;;;;5033547;28;20040;-65
2022/10/29 03:00:10;;;;;;;8.40;3.67;;;12.60;99.90;;;;;;5033883;28;20546;-66
2022/10/29 03:02:36;;;;;;;8.60;3.70;;;12.60;99.90;;;;;;5033184;28;20036;-63
2022/10/29 03:05:01;;;;;;;9.55;3.65;;;12.60;99.90;;;;;;5033008;28;20472;-61
2022/10/29 03:07:27;;;;;;;9.43;4.00;;;12.60;99.90;;;;;;5032971;28;20025;-64
2022/10/29 03:09:53;;;;;;;7.30;4.10;;;12.60;99.90;;;;;;5031815;28;20561;-60
2022/10/29 03:12:18;;;;;;;6.75;3.88;;;12.60;99.90;;;;;;5033474;28;20049;-67
2022/10/29 03:14:44;;;;;;;7.90;3.97;;;12.60;99.90;;;;;;5032929;28;20049;-65
2022/10/29 03:17:09;;;;;;;6.85;3.70;;;12.60;99.90;;;;;;5032898;28;20371;-65
2022/10/29 03:19:35;;;;;;;7.45;3.08;;;12.60;99.90;;;;;;5033435;28;20104;-65
2022/10/29 03:22:00;;;;;;;7.90;3.75;;;12.50;99.90;;;;;;5032750;28;20021;-69
2022/10/29 03:24:26;;;;;;;9.60;4.07;;;12.50;99.90;;;;;;5033369;28;20351;-66
2022/10/29 03:26:51;;;;;;;7.15;3.50;;;12.50;99.90;;;;;;5033529;28;20037;-65
2022/10/29 03:29:17;;;;;;;9.25;3.63;;;12.50;99.90;;;;;;5032460;28;20025;-59
2022/10/29 03:31:43;;;;;;;10.10;3.72;;;12.50;99.90;;;;;;5033127;28;20130;-56
2022/10/29 03:34:08;;;;;;;7.75;3.60;;;12.40;99.90;;;;;;5030649;28;20070;-59
2022/10/29 03:36:34;;;;;;;6.13;3.70;;;12.40;99.90;;;;;;5032924;28;20064;-57
2022/10/29 03:38:59;;;;;;;8.10;3.58;;;12.40;99.90;;;;;;5032929;28;20022;-58
2022/10/29 03:41:25;;;;;;;5.80;3.13;;;12.40;99.90;;;;;;5032468;28;20029;-62
2022/10/29 03:43:50;;;;;;;6.00;3.78;;;12.40;99.90;;;;;;5032864;28;20029;-59
2022/10/29 03:46:16;;;;;;;7.40;3.35;;;12.40;99.90;;;;;;5032772;28;20046;-59
2022/10/29 03:48:42;;;;;;;6.65;3.90;;;12.40;99.90;;;;;;5032010;28;20458;-57
2022/10/29 03:51:08;;;;;;;7.15;3.55;;;12.40;99.90;;;;;;5032866;28;20072;-59
2022/10/29 03:53:35;;;;;;;12.32;4.90;;;12.40;99.90;;;;;;5032826;28;20018;-59
2022/10/29 03:56:02;;;;;;;13.25;4.93;;;12.40;99.90;;;;;;5032170;28;20071;-58
2022/10/29 03:58:27;;;;;;;18.45;4.75;;;12.40;99.90;;;;;;5032938;28;20108;-60
2022/10/29 04:01:02;;;;;;;20.80;5.50;;;12.40;99.90;;;;;;5032899;28;20100;-60
2022/10/29 04:03:29;;;;;;;18.80;6.53;;;12.50;99.90;;;;;;5032346;28;20022;-60
2022/10/29 04:05:55;;;;;;;17.13;6.10;;;12.50;99.90;;;;;;5032493;28;20021;-58
2022/10/29 04:08:21;;;;;;;13.50;4.90;;;12.50;99.90;;;;;;5032588;28;20021;-59
2022/10/29 04:10:49;;;;;;;6.40;3.70;;;12.40;99.90;;;;;;5031792;28;20504;-62
2022/10/29 04:13:15;;;;;;;7.22;3.45;;;12.40;99.90;;;;;;5032569;28;20355;-57
2022/10/29 04:15:41;;;;;;;6.03;3.38;;;12.40;99.90;;;;;;5032600;28;20047;-57
2022/10/29 04:18:07;;;;;;;5.00;3.20;;;12.40;99.90;;;;;;5032033;28;20072;-59
2022/10/29 04:20:34;;;;;;;6.10;3.40;;;12.40;99.90;;;;;;5032398;28;20037;-59
2022/10/29 04:22:59;;;;;;;6.47;3.45;;;12.40;99.90;;;;;;5032527;28;20501;-59
2022/10/29 04:25:25;;;;;;;5.82;3.63;;;12.40;99.90;;;;;;5031777;28;20029;-59
2022/10/29 04:27:53;;;;;;;7.80;3.70;;;12.40;99.90;;;;;;5032285;28;20429;-59
2022/10/29 04:30:19;;;;;;;6.30;4.00;;;12.50;99.90;;;;;;5035425;28;20087;-57
2022/10/29 04:32:45;;;;;;;10.13;4.30;;;12.40;99.90;;;;;;5036411;28;20421;-57
2022/10/29 04:35:10;;;;;;;8.30;4.18;;;12.40;99.90;;;;;;5036358;28;20021;-59
2022/10/29 04:37:36;;;;;;;7.38;3.72;;;12.50;99.90;;;;;;5034180;28;20032;-59
2022/10/29 04:40:01;;;;;;;10.60;3.97;;;12.40;99.90;;;;;;5036285;28;20072;-59
2022/10/29 04:42:27;;;;;;;9.00;3.88;;;12.40;99.90;;;;;;5036426;28;20057;-58
2022/10/29 04:44:53;;;;;;;9.40;4.97;;;12.50;99.90;;;;;;5035465;28;20097;-59
2022/10/29 04:47:18;;;;;;;10.05;4.28;;;12.40;99.90;;;;;;5036078;28;20042;-57
2022/10/29 04:49:44;;;;;;;7.13;4.00;;;12.40;99.90;;;;;;5036028;28;20103;-58
2022/10/29 04:52:09;;;;;;;11.52;4.25;;;12.40;99.90;;;;;;5033446;28;20119;-59
2022/10/29 04:54:35;;;;;;;10.00;5.00;;;12.30;99.90;;;;;;5035758;28;20025;-59
2022/10/29 04:57:00;;;;;;;10.48;4.55;;;12.30;99.90;;;;;;5034135;28;20140;-58
2022/10/29 04:59:26;;;;;;;8.27;4.70;;;12.30;99.90;;;;;;5035140;28;20036;-58
2022/10/29 05:01:51;;;;;;;9.13;4.43;;;12.20;99.90;;;;;;5035721;28;20536;-57
2022/10/29 05:04:17;;;;;;;6.63;4.15;;;12.20;99.90;;;;;;5035754;28;20017;-59
2022/10/29 05:06:42;;;;;;;13.02;4.85;;;12.20;99.90;;;;;;5035312;28;20033;-59
2022/10/29 05:09:08;;;;;;;10.07;4.22;;;12.10;99.90;;;;;;5035643;28;20018;-62
2022/10/29 05:11:34;;;;;;;9.50;4.20;;;12.10;99.90;;;;;;5035581;28;20050;-59
2022/10/29 05:13:59;;;;;;;9.48;4.90;;;12.10;99.90;;;;;;5035176;28;20147;-57
2022/10/29 05:16:25;;;;;;;10.45;5.38;;;12.10;99.90;;;;;;5035581;28;20076;-59
2022/10/29 05:18:50;;;;;;;8.05;4.97;;;12.10;99.90;;;;;;5035194;28;20025;-59
2022/10/29 05:21:16;;;;;;;9.20;4.80;;;12.10;99.90;;;;;;5034822;28;20041;-59
2022/10/29 05:23:41;;;;;;;9.68;4.57;;;12.10;99.90;;;;;;5035459;28;20028;-60
2022/10/29 05:26:07;;;;;;;11.50;5.38;;;12.10;99.90;;;;;;5035236;28;20025;-58
2022/10/29 05:28:33;;;;;;;10.98;4.82;;;12.20;99.90;;;;;;5034646;28;20035;-58
2022/10/29 05:31:01;;;;;;;13.27;5.32;;;12.20;99.90;;;;;;5035345;28;20470;-59
2022/10/29 05:33:26;;;;;;;9.85;5.10;;;12.20;99.90;;;;;;5034892;28;20025;-58
2022/10/29 05:35:52;;;;;;;12.27;5.85;;;12.20;99.90;;;;;;5034744;28;20032;-58
2022/10/29 05:38:18;;;;;;;15.10;5.90;;;12.30;99.90;;;;;;5034710;28;20029;-58
2022/10/29 05:40:44;;;;;;;12.48;6.13;;;12.30;99.90;;;;;;5033467;28;20029;-58
2022/10/29 05:43:14;;;;;;;12.73;5.53;;;12.30;99.90;;;;;;5034931;28;20500;-61
2022/10/29 05:45:40;;;;;;;14.63;5.50;;;12.30;99.90;;;;;;5034808;28;20053;-60
2022/10/29 05:48:06;;;;;;;8.18;4.72;;;12.40;99.90;;;;;;5034638;28;20075;-59
2022/10/29 05:50:32;;;;;;;8.75;4.82;;;12.40;99.90;;;;;;5034943;28;20103;-59
2022/10/29 05:53:00;;;;;;;9.50;5.28;;;12.40;99.90;;;;;;5034903;28;20032;-59
2022/10/29 05:55:27;;;;;;;7.53;4.80;;;12.40;99.90;;;;;;5034278;28;20021;-57
2022/10/29 05:58:00;;;;;;;10.77;5.18;;;12.40;99.90;;;;;;5034666;28;20030;-59
2022/10/29 06:00:27;;;;;;;11.32;5.40;;;12.50;99.90;;;;;;5034971;28;20100;-58
2022/10/29 06:02:53;;;;;;;8.48;4.80;;;12.50;99.90;;;;;;5033892;28;20465;-58
2022/10/29 06:05:19;;;;;;;9.70;5.35;;;12.50;99.90;;;;;;5034657;28;20025;-57
2022/10/29 06:07:44;;;;;;;8.52;4.82;;;12.50;99.90;;;;;;5034220;28;20021;-61
2022/10/29 06:10:10;;;;;;;10.38;5.60;;;12.50;99.90;;;;;;5033617;28;20045;-62
2022/10/29 06:12:36;;;;;;;9.05;5.28;;;12.50;99.90;;;;;;5034163;28;20013;-60
2022/10/29 06:15:01;;;;;;;8.05;5.47;;;12.60;99.90;;;;;;5032000;28;20120;-57
2022/10/29 06:17:27;;;;;;;11.75;5.57;;;12.60;99.90;;;;;;5030988;28;20536;-59
2022/10/29 06:19:52;;;;;;;9.02;4.97;;;12.60;99.90;;;;;;5032322;28;20101;-58
2022/10/29 06:22:18;;;;;;;9.77;4.90;;;12.60;99.90;;;;;;5032483;28;20371;-60
2022/10/29 06:24:44;;;;;;;10.93;5.07;;;12.60;99.90;;;;;;5033268;28;20059;-57
2022/10/29 06:27:10;;;;;;;19.02;6.22;;;12.60;99.90;;;;;;5031358;28;20025;-56
2022/10/29 06:29:36;;;;;;;12.55;5.38;;;12.50;99.90;;;;;;5033683;28;20056;-58
2022/10/29 06:32:01;;;;;;;12.63;5.22;;;12.50;99.90;;;;;;5033339;28;20486;-61
2022/10/29 06:34:27;;;;;;;11.68;5.65;;;12.60;99.90;;;;;;5033897;28;20068;-57
2022/10/29 06:36:54;;;;;;;12.07;5.50;;;12.60;99.90;;;;;;5033410;28;20033;-59
2022/10/29 06:39:19;;;;;;;10.27;5.25;;;12.60;99.90;;;;;;5033903;28;20025;-60
2022/10/29 06:41:45;;;;;;;11.13;5.65;;;12.60;99.90;;;;;;5033638;28;20030;-57
2022/10/29 06:44:10;;;;;;;10.40;6.40;;;12.70;99.90;;;;;;5033472;28;20029;-60
2022/10/29 06:46:37;;;;;;;11.23;5.68;;;12.70;99.90;;;;;;5033550;28;20088;-62
2022/10/29 06:49:03;;;;;;;12.88;5.85;;;12.70;99.90;;;;;;5033863;28;20028;-60
2022/10/29 06:51:29;;;;;;;10.85;6.13;;;12.70;99.90;;;;;;5033178;28;20029;-57
2022/10/29 06:53:54;;;;;;;10.30;5.18;;;12.80;99.90;;;;;;5033496;28;20159;-58
2022/10/29 06:56:20;;;;;;;11.07;5.70;;;12.80;99.90;;;;;;5033480;28;20080;-59
2022/10/29 06:58:46;;;;;;;6.97;4.63;;;12.90;99.90;;;;;;5032513;28;20044;-54
2022/10/29 07:01:12;;;;;;;11.10;6.07;;;12.90;99.90;;;;;;5033519;28;20025;-62
2022/10/29 07:03:37;;;;;;;11.25;5.70;;;13.00;99.90;;;;;;5033208;28;20021;-58
2022/10/29 07:06:03;;;;;;;11.70;5.65;;;13.00;99.90;;;;;;5032803;28;20043;-58
2022/10/29 07:08:29;;;;;;;9.82;5.43;;;13.00;99.90;;;;;;5033438;28;20474;-62
2022/10/29 07:10:55;;;;;;;10.80;5.72;;;13.00;99.90;;;;;;5033231;28;20040;-58
2022/10/29 07:13:21;;;;;;;9.38;5.20;;;13.10;99.90;;;;;;5032506;28;20010;-60
2022/10/29 07:15:47;;;;;;;12.05;5.35;;;13.10;99.90;;;;;;5033364;28;20048;-60
2022/10/29 07:18:14;;;;;;;9.90;5.65;;;13.10;99.90;;;;;;5033211;28;20045;-59
2022/10/29 07:20:42;;;;;;;8.57;5.47;;;13.10;99.90;;;;;;5032811;28;20025;-61
2022/10/29 07:23:09;;;;;;;8.95;5.05;;;13.20;99.90;;;;;;5033342;28;20108;-57
2022/10/29 07:25:36;;;;;;;10.10;5.20;;;13.20;99.90;;;;;;5033200;28;20021;-62
2022/10/29 07:28:21;;;;;;;8.27;5.05;;;13.30;99.90;;;;;;5032478;28;20025;-66
2022/10/29 07:30:48;;;;;;;9.05;5.45;;;13.40;99.90;;;;;;5033040;28;20435;-63
2022/10/29 07:33:15;;;;;;;11.27;5.88;;;13.50;99.90;;;;;;5032586;28;20029;-58
2022/10/29 07:35:41;;;;;;;11.52;6.22;;;13.50;99.90;;;;;;5033126;28;20043;-62
2022/10/29 07:38:09;;;;;;;11.80;7.38;;;13.60;99.90;;;;;;5033074;28;20069;-66
2022/10/29 07:40:35;;;;;;;10.88;6.18;;;13.60;99.90;;;;;;5032353;28;20134;-65
2022/10/29 07:43:01;;;;;;;11.20;5.63;;;13.70;99.90;;;;;;5033062;28;20021;-60
2022/10/29 07:45:27;;;;;;;11.43;5.70;;;13.80;99.90;;;;;;5032820;28;20051;-61
2022/10/29 07:48:00;;;;;;;13.38;6.78;;;13.90;99.90;;;;;;5032300;28;20028;-63
2022/10/29 07:50:26;;;;;;;12.13;6.55;;;14.00;99.90;;;;;;5033033;28;20116;-68
2022/10/29 07:52:52;;;;;;;17.23;8.10;;;14.10;99.90;;;;;;5033044;28;20028;-65
2022/10/29 07:55:17;;;;;;;16.67;7.53;;;14.20;99.90;;;;;;5032200;28;20026;-62
2022/10/29 07:57:43;;;;;;;19.02;9.40;;;14.40;99.90;;;;;;5031426;28;20044;-59
2022/10/29 08:00:11;;;;;;;15.65;8.48;;;14.50;99.90;;;;;;5033050;28;20029;-59
2022/10/29 08:02:37;;;;;;;17.33;7.30;;;14.60;99.90;;;;;;5030823;28;20037;-59
2022/10/29 08:05:03;;;;;;;15.98;8.38;;;14.60;99.90;;;;;;5032245;28;20036;-59
2022/10/29 08:07:29;;;;;;;16.65;8.40;;;14.60;99.90;;;;;;5032514;28;20418;-59
2022/10/29 08:09:54;;;;;;;14.05;7.60;;;14.60;99.90;;;;;;5031650;28;20052;-60
2022/10/29 08:12:20;;;;;;;15.23;7.15;;;14.60;99.90;;;;;;5032809;28;20087;-58
2022/10/29 08:14:45;;;;;;;14.85;7.50;;;14.60;99.90;;;;;;5032754;28;20018;-62
2022/10/29 08:17:11;;;;;;;14.00;7.20;;;14.60;99.90;;;;;;5030823;28;20560;-57
2022/10/29 08:19:37;;;;;;;16.00;7.28;;;14.70;99.90;;;;;;5032588;28;20021;-58
2022/10/29 08:22:02;;;;;;;14.57;8.13;;;14.70;99.90;;;;;;5032528;28;20029;-60
2022/10/29 08:24:28;;;;;;;13.13;7.53;;;14.80;99.90;;;;;;5031905;28;20589;-62
2022/10/29 08:26:53;;;;;;;16.00;9.32;;;14.90;99.90;;;;;;5031284;28;20474;-59
2022/10/29 08:29:19;;;;;;;16.38;9.73;;;15.00;99.90;;;;;;5032045;28;20033;-58
2022/10/29 08:31:44;;;;;;;13.63;8.90;;;15.10;99.90;;;;;;5032264;28;20029;-61
2022/10/29 08:34:10;;;;;;;19.38;9.25;;;15.30;99.90;;;;;;5032452;28;20017;-59
2022/10/29 08:36:35;;;;;;;16.55;10.18;;;15.40;99.90;;;;;;5030887;28;20465;-59
2022/10/29 08:39:01;;;;;;;15.15;9.18;;;15.50;99.90;;;;;;5030548;28;20024;-64
2022/10/29 08:41:27;;;;;;;15.30;8.38;;;15.60;99.90;;;;;;5032071;28;20385;-58
2022/10/29 08:44:09;;;;;;;17.45;9.23;;;15.70;99.90;;;;;;5031665;28;20029;-60
2022/10/29 08:46:53;;;;;;;15.00;9.10;;;15.70;99.90;;;;;;5032081;28;20041;-59
2022/10/29 08:49:23;;;;;;;18.25;9.30;;;15.80;99.90;;;;;;5032452;28;20096;-59
2022/10/29 08:52:00;;;;;;;18.10;10.70;;;15.80;99.90;;;;;;5031832;28;20103;-58
2022/10/29 08:54:29;;;;;;;20.08;11.27;;;15.90;99.90;;;;;;5032391;28;20021;-58
2022/10/29 08:56:57;;;;;;;16.63;10.65;;;15.90;99.90;;;;;;5032188;28;20025;-60
2022/10/29 08:59:25;;;;;;;22.17;10.43;;;16.00;99.90;;;;;;5046826;28;20057;-58
2022/10/29 09:01:52;;;;;;;22.08;12.50;;;16.00;99.90;;;;;;5030926;28;20021;-59
2022/10/29 09:04:39;;;;;;;24.83;11.75;;;16.10;99.90;;;;;;5032254;28;20053;-60
2022/10/29 09:07:33;;;;;;;19.80;10.82;;;16.10;99.90;;;;;;5032713;28;20045;-58
2022/10/29 09:10:04;;;;;;;18.42;11.00;;;16.20;99.90;;;;;;5032278;28;20029;-61
2022/10/29 09:12:39;;;;;;;15.68;9.05;;;16.30;99.90;;;;;;5030961;28;20033;-60
2022/10/29 09:15:29;;;;;;;15.70;8.80;;;16.30;99.90;;;;;;5031790;28;20119;-61
2022/10/29 09:18:19;;;;;;;16.08;8.50;;;16.30;99.90;;;;;;5034476;28;20141;-59
2022/10/29 09:21:11;;;;;;;17.73;9.50;;;16.40;99.90;;;;;;5023699;28;20029;-63
2022/10/29 09:23:59;;;;;;;17.88;8.45;;;16.40;99.90;;;;;;4998982;28;20042;-58
2022/10/29 09:26:53;;;;;;;17.50;8.15;;;16.40;99.90;;;;;;5033773;28;20021;-59
2022/10/29 09:29:57;;;;;;;15.05;8.25;;;16.50;99.90;;;;;;5029339;28;20040;-59
2022/10/29 09:32:39;;;;;;;18.02;9.80;;;16.60;99.90;;;;;;5030578;28;20091;-61
2022/10/29 09:35:17;;;;;;;12.85;8.73;;;16.70;99.90;;;;;;5034424;28;20033;-59
2022/10/29 09:37:53;;;;;;;20.42;9.75;;;16.90;99.90;;;;;;5033011;28;20557;-59
2022/10/29 09:40:37;;;;;;;18.80;10.57;;;17.00;99.90;;;;;;5020066;28;20029;-65
2022/10/29 09:43:21;;;;;;;17.98;10.35;;;17.10;99.90;;;;;;5029915;28;20037;-59
2022/10/29 09:46:08;;;;;;;18.90;9.75;;;17.20;99.90;;;;;;5032614;28;20135;-59
2022/10/29 09:48:46;;;;;;;18.25;11.05;;;17.30;99.90;;;;;;5031966;28;20486;-56
2022/10/29 09:51:39;;;;;;;22.60;11.23;;;17.40;99.90;;;;;;5031548;28;20040;-64
2022/10/29 09:54:05;;;;;;;17.88;9.77;;;17.50;99.90;;;;;;5033388;28;20025;-63
2022/10/29 09:56:31;;;;;;;27.35;12.07;;;17.50;99.90;;;;;;5033736;28;20105;-58
2022/10/29 09:59:10;;;;;;;21.98;11.05;;;17.50;99.90;;;;;;5033541;28;20026;-58
2022/10/29 10:01:36;;;;;;;18.25;11.27;;;17.50;99.90;;;;;;5032078;28;20038;-59
2022/10/29 10:04:18;;;;;;;16.88;9.55;;;17.50;99.90;;;;;;5032367;28;20489;-59
2022/10/29 10:07:00;;;;;;;16.38;9.80;;;17.60;99.90;;;;;;5027560;28;20033;-59
2022/10/29 10:09:26;;;;;;;16.88;9.80;;;17.60;99.90;;;;;;5027490;28;20024;-57
2022/10/29 10:11:53;;;;;;;23.83;10.57;;;17.70;99.90;;;;;;5031800;28;20045;-59
2022/10/29 10:14:23;;;;;;;16.45;10.15;;;17.70;99.90;;;;;;5032400;28;20057;-55
2022/10/29 10:16:59;;;;;;;17.65;10.18;;;17.70;99.90;;;;;;5031337;28;20029;-59
2022/10/29 10:19:29;;;;;;;21.38;10.98;;;17.80;99.90;;;;;;5032004;28;20022;-63
2022/10/29 10:22:03;;;;;;;16.70;9.88;;;17.80;99.90;;;;;;5029889;28;20496;-62
2022/10/29 10:24:40;;;;;;;21.38;11.80;;;17.90;99.90;;;;;;5031002;28;20029;-59
2022/10/29 10:27:17;;;;;;;22.13;11.73;;;17.90;99.90;;;;;;5031745;28;20029;-61
2022/10/29 10:30:04;;;;;;;19.45;10.05;;;17.90;99.90;;;;;;5030690;28;20080;-60
2022/10/29 10:32:30;;;;;;;21.48;10.48;;;18.00;99.90;;;;;;5031345;28;20059;-59
2022/10/29 10:34:56;;;;;;;15.70;9.30;;;18.00;99.90;;;;;;5032045;28;21216;-58
2022/10/29 10:37:22;;;;;;;17.50;9.18;;;18.00;99.90;;;;;;5030438;28;20025;-59
2022/10/29 10:39:53;;;;;;;19.08;10.30;;;18.10;99.90;;;;;;5033033;28;20040;-59
2022/10/29 10:42:28;;;;;;;18.98;10.88;;;18.10;99.90;;;;;;5033124;28;20029;-61
2022/10/29 10:45:02;;;;;;;18.20;10.00;;;18.10;99.90;;;;;;5032142;28;20075;-60
2022/10/29 10:47:32;;;;;;;16.05;9.05;;;18.10;99.90;;;;;;5033038;28;20125;-64
2022/10/29 10:50:18;;;;;;;15.18;8.77;;;18.20;99.90;;;;;;5030190;28;20506;-61
2022/10/29 10:52:44;;;;;;;15.20;8.23;;;18.30;99.90;;;;;;5031862;28;20120;-59
2022/10/29 10:55:33;;;;;;;16.02;8.40;;;18.40;99.90;;;;;;5032235;28;20051;-60
2022/10/29 10:58:10;;;;;;;17.05;8.70;;;18.60;99.90;;;;;;5031421;28;20441;-59
2022/10/29 11:00:42;;;;;;;15.48;8.35;;;18.70;99.90;;;;;;5033265;28;20080;-62
2022/10/29 11:03:07;;;;;;;15.05;8.32;;;18.90;99.90;;;;;;5032812;28;20536;-63
2022/10/29 11:05:39;;;;;;;15.13;8.77;;;19.00;99.90;;;;;;5030470;28;20029;-57
2022/10/29 11:08:04;;;;;;;;;;;19.20;99.90;;;;;;5032287;28;20029;-66
2022/10/29 11:10:52;;;;;;;16.08;7.75;;;19.30;99.90;;;;;;5032302;28;19975;-63
2022/10/29 11:13:25;;;;;;;13.93;8.10;;;19.40;99.90;;;;;;5031647;28;20080;-60
2022/10/29 11:16:15;;;;;;;17.88;9.05;;;19.50;99.90;;;;;;5032382;28;20041;-59
2022/10/29 11:19:11;;;;;;;17.48;9.07;;;19.50;99.90;;;;;;5031558;28;20025;-65
2022/10/29 11:21:50;;;;;;;10.93;6.15;;;19.50;99.90;;;;;;5015860;28;20033;-61
2022/10/29 11:24:37;;;;;;;12.68;7.72;;;19.50;99.90;;;;;;5032359;28;20040;-58
2022/10/29 11:27:24;;;;;;;15.75;7.93;;;19.60;99.90;;;;;;5025660;28;20025;-59
2022/10/29 11:30:05;;;;;;;32.53;21.80;;;19.70;99.90;;;;;;5032184;28;20112;-61
2022/10/29 11:32:51;;;;;;;17.42;9.93;;;19.70;99.90;;;;;;5020083;28;20522;-59
2022/10/29 11:35:39;;;;;;;15.32;6.82;;;19.80;99.90;;;;;;5032343;28;20053;-59
2022/10/29 11:38:23;;;;;;;13.82;6.90;;;19.80;99.90;;;;;;5030584;28;20029;-59
2022/10/29 11:41:05;;;;;;;12.90;6.90;;;19.90;99.90;;;;;;5031818;28;20393;-59
2022/10/29 11:43:32;;;;;;;10.80;5.82;;;19.90;99.90;;;;;;5032350;28;20025;-59
2022/10/29 11:46:18;;;;;;;13.25;6.22;;;20.00;99.90;;;;;;5032838;28;20041;-59
2022/10/29 11:49:02;;;;;;;14.23;6.63;;;20.00;99.90;;;;;;5022317;28;20370;-61
2022/10/29 11:51:47;;;;;;;12.45;6.13;;;19.90;99.90;;;;;;5032907;28;20033;-65
2022/10/29 11:54:44;;;;;;;14.25;6.07;;;19.90;99.90;;;;;;5031166;28;20080;-58
2022/10/29 11:57:31;;;;;;;11.35;6.20;;;19.80;99.90;;;;;;5028399;28;20100;-61
2022/10/29 12:00:15;;;;;;;11.23;6.68;;;19.70;99.90;;;;;;5029661;28;20125;-59
2022/10/29 12:03:10;;;;;;;13.27;7.20;;;19.70;99.90;;;;;;5030361;28;20030;-58
2022/10/29 12:06:14;;;;;;;10.23;5.80;;;19.60;99.90;;;;;;5032845;28;20029;-61
2022/10/29 12:09:37;;;;;;;9.32;5.25;;;19.60;99.90;;;;;;5032300;28;20025;-59
2022/10/29 12:12:22;;;;;;;10.32;6.55;;;19.70;99.90;;;;;;4983206;28;20058;-61
2022/10/29 12:15:19;;;;;;;11.18;5.45;;;19.90;99.90;;;;;;4989029;28;20129;-60
2022/10/29 12:18:03;;;;;;;9.18;5.07;;;20.00;99.90;;;;;;5027766;28;20080;-59
2022/10/29 12:21:00;;;;;;;10.07;5.20;;;20.00;99.90;;;;;;5013194;28;20037;-61
2022/10/29 12:23:41;;;;;;;10.20;4.72;;;20.10;99.90;;;;;;5005054;28;20053;-62
2022/10/29 12:26:32;;;;;;;11.70;4.85;;;20.20;99.90;;;;;;5031661;28;20361;-61
2022/10/29 12:29:22;;;;;;;10.18;4.43;;;20.40;99.90;;;;;;5029485;28;20036;-64
2022/10/29 12:31:58;;;;;;;13.40;6.00;;;20.60;99.90;;;;;;5030861;28;20456;-58
2022/10/29 12:34:33;;;;;;;11.88;5.07;;;20.80;99.90;;;;;;5029372;28;20112;-60
2022/10/29 12:37:07;;;;;;;10.27;4.72;;;20.90;99.90;;;;;;5027614;28;20109;-60
2022/10/29 12:39:43;;;;;;;12.48;5.07;;;20.90;99.90;;;;;;5030643;28;20025;-59
2022/10/29 12:42:18;;;;;;;11.73;6.22;;;20.90;99.90;;;;;;5029599;28;20053;-63
2022/10/29 12:45:18;;;;;;;13.52;5.57;;;20.90;99.90;;;;;;5028473;28;20120;-59
2022/10/29 12:47:48;;;;;;;11.40;5.55;;;20.90;99.80;;;;;;5028167;28;20038;-60
2022/10/29 12:50:45;;;;;;;10.63;5.63;;;20.80;99.80;;;;;;5032818;28;20033;-60
2022/10/29 12:53:38;;;;;;;8.80;4.47;;;20.80;99.80;;;;;;5025654;28;20049;-58
2022/10/29 12:56:06;;;;;;;11.45;5.47;;;20.80;99.80;;;;;;5035871;28;20030;-57
2022/10/29 12:58:48;;;;;;;9.10;5.07;;;20.80;99.80;;;;;;5034116;28;20191;-64
2022/10/29 13:01:27;;;;;;;8.95;4.72;;;20.90;99.60;;;;;;5035610;28;20074;-55
2022/10/29 13:03:53;;;;;;;11.13;5.35;;;20.90;99.60;;;;;;5035157;28;20017;-56